sensor_id;sensor_type;location;lat;lon;timestamp;pressure;altitude;pressure_sealevel;temperature;humidity
31585;BME280;18191;51.288;12.390;2023-03-14T00:01:15;49205.78;;;-144.47;93.76
31585;BME280;18191;51.288;12.390;2023-03-14T00:06:06;49185.88;;;-144.47;94.02
31585;BME280;18191;51.288;12.390;2023-03-14T00:10:56;49227.66;;;-144.47;92.38
31585;BME280;18191;51.288;12.390;2023-03-14T00:15:47;49227.66;;;-144.47;92.17
31585;BME280;18191;51.288;12.390;2023-03-14T00:20:38;49203.78;;;-144.47;92.80
31585;BME280;18191;51.288;12.390;2023-03-14T00:25:28;49193.84;;;-144.47;94.12
31585;BME280;18191;51.288;12.390;2023-03-14T00:30:18;49171.97;;;-144.47;94.26
31585;BME280;18191;51.288;12.390;2023-03-14T00:35:09;49207.78;;;-144.47;94.40
31585;BME280;18191;51.288;12.390;2023-03-14T00:39:59;49223.69;;;-144.47;94.99
31585;BME280;18191;51.288;12.390;2023-03-14T00:44:49;49207.78;;;-144.47;94.87
31585;BME280;18191;51.288;12.390;2023-03-14T00:49:39;49215.72;;;-144.47;95.98
31585;BME280;18191;51.288;12.390;2023-03-14T00:54:29;49171.97;;;-144.47;94.77
31585;BME280;18191;51.288;12.390;2023-03-14T00:59:20;49195.84;;;-144.47;94.40
31585;BME280;18191;51.288;12.390;2023-03-14T01:04:10;49211.75;;;-144.47;93.76
31585;BME280;18191;51.288;12.390;2023-03-14T01:09:00;49205.78;;;-144.47;93.79
31585;BME280;18191;51.288;12.390;2023-03-14T01:13:51;49191.84;;;-144.47;92.07
31585;BME280;18191;51.288;12.390;2023-03-14T01:18:41;49223.69;;;-144.47;91.20
31585;BME280;18191;51.288;12.390;2023-03-14T01:23:33;49183.91;;;-144.47;90.81
31585;BME280;18191;51.288;12.390;2023-03-14T01:28:23;49223.69;;;-144.47;90.11
31585;BME280;18191;51.288;12.390;2023-03-14T01:33:13;49223.69;;;-144.47;90.03
31585;BME280;18191;51.288;12.390;2023-03-14T01:38:04;49215.72;;;-144.47;89.62
31585;BME280;18191;51.288;12.390;2023-03-14T01:43:00;49191.84;;;-144.47;88.80
31585;BME280;18191;51.288;12.390;2023-03-14T01:47:55;49207.78;;;-144.47;88.83
31585;BME280;18191;51.288;12.390;2023-03-14T01:52:48;49183.91;;;-144.47;87.44
31585;BME280;18191;51.288;12.390;2023-03-14T01:57:43;49203.78;;;-144.47;87.91
31585;BME280;18191;51.288;12.390;2023-03-14T02:02:35;49215.72;;;-144.47;86.82
31585;BME280;18191;51.288;12.390;2023-03-14T02:07:36;49229.66;;;-144.47;86.59
31585;BME280;18191;51.288;12.390;2023-03-14T02:12:29;49195.84;;;-144.47;85.88
31585;BME280;18191;51.288;12.390;2023-03-14T02:17:23;49209.75;;;-144.47;84.30
31585;BME280;18191;51.288;12.390;2023-03-14T02:22:14;49169.97;;;-144.47;83.49
31585;BME280;18191;51.288;12.390;2023-03-14T02:31:55;49195.84;;;-144.47;83.56
31585;BME280;18191;51.288;12.390;2023-03-14T02:36:45;49173.94;;;-144.47;83.87
31585;BME280;18191;51.288;12.390;2023-03-14T02:41:36;49187.88;;;-144.47;83.15
31585;BME280;18191;51.288;12.390;2023-03-14T02:46:26;49164.00;;;-144.47;83.85
31585;BME280;18191;51.288;12.390;2023-03-14T02:51:17;49195.84;;;-144.47;82.18
31585;BME280;18191;51.288;12.390;2023-03-14T02:56:07;49160.03;;;-144.47;82.75
31585;BME280;18191;51.288;12.390;2023-03-14T03:00:58;49193.84;;;-144.47;81.07
31585;BME280;18191;51.288;12.390;2023-03-14T03:05:51;49199.81;;;-144.47;80.75
31585;BME280;18191;51.288;12.390;2023-03-14T03:10:42;49187.88;;;-144.47;80.67
31585;BME280;18191;51.288;12.390;2023-03-14T03:15:32;49167.97;;;-144.47;79.29
31585;BME280;18191;51.288;12.390;2023-03-14T03:20:22;49183.91;;;-144.47;78.91
31585;BME280;18191;51.288;12.390;2023-03-14T03:25:13;49183.91;;;-144.47;79.34
31585;BME280;18191;51.288;12.390;2023-03-14T03:30:04;49175.94;;;-144.47;78.98
31585;BME280;18191;51.288;12.390;2023-03-14T03:34:54;49183.91;;;-144.47;77.37
31585;BME280;18191;51.288;12.390;2023-03-14T03:39:45;49211.75;;;-144.47;77.58
31585;BME280;18191;51.288;12.390;2023-03-14T03:44:35;49203.78;;;-144.47;76.91
31585;BME280;18191;51.288;12.390;2023-03-14T03:49:28;49160.03;;;-144.47;77.67
31585;BME280;18191;51.288;12.390;2023-03-14T03:54:18;49148.09;;;-144.47;76.70
31585;BME280;18191;51.288;12.390;2023-03-14T03:59:08;49211.75;;;-144.47;77.25
31585;BME280;18191;51.288;12.390;2023-03-14T04:03:58;49195.84;;;-144.47;77.67
31585;BME280;18191;51.288;12.390;2023-03-14T04:08:49;49207.78;;;-144.47;77.94
31585;BME280;18191;51.288;12.390;2023-03-14T04:13:39;49171.97;;;-144.47;77.40
31585;BME280;18191;51.288;12.390;2023-03-14T04:18:29;49164.00;;;-144.47;78.14
31585;BME280;18191;51.288;12.390;2023-03-14T04:23:20;49152.06;;;-144.47;78.94
31585;BME280;18191;51.288;12.390;2023-03-14T04:28:11;49183.91;;;-144.47;77.70
31585;BME280;18191;51.288;12.390;2023-03-14T04:33:01;49211.75;;;-144.47;76.82
31585;BME280;18191;51.288;12.390;2023-03-14T04:37:52;49164.00;;;-144.47;77.56
31585;BME280;18191;51.288;12.390;2023-03-14T04:42:42;49152.06;;;-144.47;77.87
31585;BME280;18191;51.288;12.390;2023-03-14T04:47:33;49199.81;;;-144.47;78.62
31585;BME280;18191;51.288;12.390;2023-03-14T04:52:24;49164.00;;;-144.47;78.16
31585;BME280;18191;51.288;12.390;2023-03-14T04:57:14;49158.03;;;-144.47;77.16
31585;BME280;18191;51.288;12.390;2023-03-14T05:02:06;49199.81;;;-144.47;77.35
31585;BME280;18191;51.288;12.390;2023-03-14T05:06:56;49199.81;;;-144.47;76.94
31585;BME280;18191;51.288;12.390;2023-03-14T05:11:46;49164.00;;;-144.47;76.19
31585;BME280;18191;51.288;12.390;2023-03-14T05:16:36;49187.88;;;-144.47;76.17
31585;BME280;18191;51.288;12.390;2023-03-14T05:21:27;49183.91;;;-144.47;76.65
31585;BME280;18191;51.288;12.390;2023-03-14T05:26:17;49175.94;;;-144.47;76.40
31585;BME280;18191;51.288;12.390;2023-03-14T05:31:07;49160.03;;;-144.47;76.30
31585;BME280;18191;51.288;12.390;2023-03-14T05:35:58;49207.78;;;-144.47;76.84
31585;BME280;18191;51.288;12.390;2023-03-14T05:40:48;49167.97;;;-144.47;76.40
31585;BME280;18191;51.288;12.390;2023-03-14T05:45:39;49158.03;;;-144.47;75.56
31585;BME280;18191;51.288;12.390;2023-03-14T05:50:29;49183.91;;;-144.47;75.85
31585;BME280;18191;51.288;12.390;2023-03-14T05:55:19;49171.97;;;-144.47;75.59
31585;BME280;18191;51.288;12.390;2023-03-14T06:00:09;49152.06;;;-144.47;75.20
31585;BME280;18191;51.288;12.390;2023-03-14T06:04:59;49160.03;;;-144.47;74.82
31585;BME280;18191;51.288;12.390;2023-03-14T06:09:50;49199.81;;;-144.47;74.31
31585;BME280;18191;51.288;12.390;2023-03-14T06:14:40;49175.94;;;-144.47;73.27
31585;BME280;18191;51.288;12.390;2023-03-14T06:19:30;49160.03;;;-144.47;73.03
31585;BME280;18191;51.288;12.390;2023-03-14T06:24:20;49175.94;;;-144.47;72.55
31585;BME280;18191;51.288;12.390;2023-03-14T06:29:10;49173.94;;;-144.47;71.87
31585;BME280;18191;51.288;12.390;2023-03-14T06:34:00;49146.09;;;-144.47;71.26
31585;BME280;18191;51.288;12.390;2023-03-14T06:38:51;49160.03;;;-144.47;71.99
31585;BME280;18191;51.288;12.390;2023-03-14T06:43:41;49164.00;;;-144.47;72.34
31585;BME280;18191;51.288;12.390;2023-03-14T06:48:31;49181.91;;;-144.47;71.69
31585;BME280;18191;51.288;12.390;2023-03-14T06:53:21;49179.91;;;-144.47;72.43
31585;BME280;18191;51.288;12.390;2023-03-14T06:58:12;49144.09;;;-144.47;71.79
31585;BME280;18191;51.288;12.390;2023-03-14T07:03:03;49175.94;;;-144.47;70.10
31585;BME280;18191;51.288;12.390;2023-03-14T07:07:53;49183.91;;;-144.47;69.50
31585;BME280;18191;51.288;12.390;2023-03-14T07:12:44;49158.03;;;-144.47;69.56
31585;BME280;18191;51.288;12.390;2023-03-14T07:17:34;49160.03;;;-144.47;69.26
31585;BME280;18191;51.288;12.390;2023-03-14T07:22:24;49164.00;;;-144.47;68.14
31585;BME280;18191;51.288;12.390;2023-03-14T07:27:14;49144.09;;;-144.47;66.82
31585;BME280;18191;51.288;12.390;2023-03-14T07:32:04;49195.84;;;-144.47;67.70
31585;BME280;18191;51.288;12.390;2023-03-14T07:36:55;49156.03;;;-144.47;67.02
31585;BME280;18191;51.288;12.390;2023-03-14T07:41:45;49167.97;;;-144.47;66.65
31585;BME280;18191;51.288;12.390;2023-03-14T07:46:35;49144.09;;;-144.47;66.21
31585;BME280;18191;51.288;12.390;2023-03-14T07:51:25;49116.25;;;-144.47;66.42
31585;BME280;18191;51.288;12.390;2023-03-14T07:56:15;49136.16;;;-144.47;65.17
31585;BME280;18191;51.288;12.390;2023-03-14T08:01:05;49138.16;;;-144.47;65.31
31585;BME280;18191;51.288;12.390;2023-03-14T08:05:56;49175.94;;;-144.47;65.56
31585;BME280;18191;51.288;12.390;2023-03-14T08:10:46;49158.03;;;-144.47;66.06
31585;BME280;18191;51.288;12.390;2023-03-14T08:15:36;49156.03;;;-144.47;64.74
31585;BME280;18191;51.288;12.390;2023-03-14T08:20:27;49138.16;;;-144.47;64.55
31585;BME280;18191;51.288;12.390;2023-03-14T08:25:18;49175.94;;;-144.47;64.20
31585;BME280;18191;51.288;12.390;2023-03-14T08:30:12;49116.25;;;-144.47;63.70
31585;BME280;18191;51.288;12.390;2023-03-14T08:35:03;49124.22;;;-144.47;63.02
31585;BME280;18191;51.288;12.390;2023-03-14T08:39:55;49138.16;;;-144.47;62.25
31585;BME280;18191;51.288;12.390;2023-03-14T08:44:45;49138.16;;;-144.47;62.56
31585;BME280;18191;51.288;12.390;2023-03-14T08:49:35;49128.19;;;-144.47;60.66
31585;BME280;18191;51.288;12.390;2023-03-14T08:54:25;49148.09;;;-144.47;60.95
31585;BME280;18191;51.288;12.390;2023-03-14T08:59:16;49164.00;;;-144.47;60.23
31585;BME280;18191;51.288;12.390;2023-03-14T09:04:07;49160.03;;;-144.47;60.60
31585;BME280;18191;51.288;12.390;2023-03-14T09:08:57;49160.03;;;-144.47;60.69
31585;BME280;18191;51.288;12.390;2023-03-14T09:13:47;49164.00;;;-144.47;60.30
31585;BME280;18191;51.288;12.390;2023-03-14T09:18:38;49136.16;;;-144.47;61.03
31585;BME280;18191;51.288;12.390;2023-03-14T09:23:28;49181.91;;;-144.47;60.49
31585;BME280;18191;51.288;12.390;2023-03-14T09:28:18;49132.16;;;-144.47;60.28
31585;BME280;18191;51.288;12.390;2023-03-14T09:33:09;49132.16;;;-144.47;60.63
31585;BME280;18191;51.288;12.390;2023-03-14T09:37:59;49138.16;;;-144.47;60.13
31585;BME280;18191;51.288;12.390;2023-03-14T09:42:52;49171.97;;;-144.47;59.17
31585;BME280;18191;51.288;12.390;2023-03-14T09:47:43;49140.13;;;-144.47;59.13
31585;BME280;18191;51.288;12.390;2023-03-14T09:52:37;49144.09;;;-144.47;58.70
31585;BME280;18191;51.288;12.390;2023-03-14T09:57:29;49124.22;;;-144.47;58.80
31585;BME280;18191;51.288;12.390;2023-03-14T10:02:22;49144.09;;;-144.47;57.99
31585;BME280;18191;51.288;12.390;2023-03-14T10:07:14;49173.94;;;-144.47;57.66
31585;BME280;18191;51.288;12.390;2023-03-14T10:12:07;49150.06;;;-144.47;57.60
31585;BME280;18191;51.288;12.390;2023-03-14T10:17:04;49156.03;;;-144.47;58.90
31585;BME280;18191;51.288;12.390;2023-03-14T10:22:00;49136.16;;;-144.47;57.17
31585;BME280;18191;51.288;12.390;2023-03-14T10:26:53;49203.78;;;-144.47;58.22
31585;BME280;18191;51.288;12.390;2023-03-14T10:31:46;49128.19;;;-144.47;57.96
31585;BME280;18191;51.288;12.390;2023-03-14T10:36:36;49167.97;;;-144.47;57.74
31585;BME280;18191;51.288;12.390;2023-03-14T10:41:27;49148.09;;;-144.47;57.30
31585;BME280;18191;51.288;12.390;2023-03-14T10:46:20;49136.16;;;-144.47;56.22
31585;BME280;18191;51.288;12.390;2023-03-14T10:51:11;49120.25;;;-144.47;55.94
31585;BME280;18191;51.288;12.390;2023-03-14T10:56:11;49102.34;;;-144.47;54.85
31585;BME280;18191;51.288;12.390;2023-03-14T11:06:04;49096.38;;;-144.47;53.29
31585;BME280;18191;51.288;12.390;2023-03-14T11:11:06;49116.25;;;-144.47;56.08
31585;BME280;18191;51.288;12.390;2023-03-14T11:21:08;49124.22;;;-144.47;58.94
31585;BME280;18191;51.288;12.390;2023-03-14T11:31:20;49144.09;;;-144.47;60.12
31585;BME280;18191;51.288;12.390;2023-03-14T11:36:15;49148.09;;;-144.47;59.82
31585;BME280;18191;51.288;12.390;2023-03-14T11:41:10;49112.28;;;-144.47;59.13
31585;BME280;18191;51.288;12.390;2023-03-14T11:46:05;49108.31;;;-144.47;59.05
31585;BME280;18191;51.288;12.390;2023-03-14T11:50:57;49148.09;;;-144.47;57.73
31585;BME280;18191;51.288;12.390;2023-03-14T11:55:49;49144.09;;;-144.47;56.19
31585;BME280;18191;51.288;12.390;2023-03-14T12:00:41;49116.25;;;-144.47;56.85
31585;BME280;18191;51.288;12.390;2023-03-14T12:10:28;49152.06;;;-144.47;57.13
31585;BME280;18191;51.288;12.390;2023-03-14T12:15:19;49116.25;;;-144.47;56.71
31585;BME280;18191;51.288;12.390;2023-03-14T12:20:17;49108.31;;;-144.47;55.75
31585;BME280;18191;51.288;12.390;2023-03-14T12:30:01;49140.13;;;-144.47;57.20
31585;BME280;18191;51.288;12.390;2023-03-14T12:34:51;49167.97;;;-144.47;57.21
31585;BME280;18191;51.288;12.390;2023-03-14T12:39:56;49140.13;;;-144.47;54.34
31585;BME280;18191;51.288;12.390;2023-03-14T12:44:49;49144.09;;;-144.47;51.80
31585;BME280;18191;51.288;12.390;2023-03-14T12:49:40;49096.38;;;-144.47;50.64
31585;BME280;18191;51.288;12.390;2023-03-14T12:54:40;49096.38;;;-144.47;51.36
31585;BME280;18191;51.288;12.390;2023-03-14T12:59:47;49114.28;;;-144.47;51.85
31585;BME280;18191;51.288;12.390;2023-03-14T13:04:44;49132.16;;;-144.47;53.84
31585;BME280;18191;51.288;12.390;2023-03-14T13:09:35;49148.09;;;-144.47;54.31
31585;BME280;18191;51.288;12.390;2023-03-14T13:14:27;49132.16;;;-144.47;54.38
31585;BME280;18191;51.288;12.390;2023-03-14T13:19:25;49132.16;;;-144.47;54.37
31585;BME280;18191;51.288;12.390;2023-03-14T13:24:21;49144.09;;;-144.47;55.85
31585;BME280;18191;51.288;12.390;2023-03-14T13:29:22;49108.31;;;-144.47;55.30
31585;BME280;18191;51.288;12.390;2023-03-14T13:34:13;49086.41;;;-144.47;55.41
31585;BME280;18191;51.288;12.390;2023-03-14T13:39:04;49086.41;;;-144.47;54.73
31585;BME280;18191;51.288;12.390;2023-03-14T13:44:03;49173.94;;;-144.47;54.63
31585;BME280;18191;51.288;12.390;2023-03-14T13:48:58;49104.31;;;-144.47;53.90
31585;BME280;18191;51.288;12.390;2023-03-14T13:53:51;49148.09;;;-144.47;52.45
31585;BME280;18191;51.288;12.390;2023-03-14T13:58:41;49088.41;;;-144.47;50.52
31585;BME280;18191;51.288;12.390;2023-03-14T14:03:34;49116.25;;;-144.47;50.34
31585;BME280;18191;51.288;12.390;2023-03-14T14:08:26;49116.25;;;-144.47;49.76
31585;BME280;18191;51.288;12.390;2023-03-14T14:13:17;49167.97;;;-144.47;49.35
31585;BME280;18191;51.288;12.390;2023-03-14T14:18:11;49128.19;;;-144.47;50.19
31585;BME280;18191;51.288;12.390;2023-03-14T14:23:03;49108.31;;;-144.47;51.17
31585;BME280;18191;51.288;12.390;2023-03-14T14:27:54;49120.25;;;-144.47;52.81
31585;BME280;18191;51.288;12.390;2023-03-14T14:32:44;49088.41;;;-144.47;51.91
31585;BME280;18191;51.288;12.390;2023-03-14T14:37:40;49120.25;;;-144.47;53.46
31585;BME280;18191;51.288;12.390;2023-03-14T14:42:31;49140.13;;;-144.47;52.86
31585;BME280;18191;51.288;12.390;2023-03-14T14:47:22;49112.28;;;-144.47;53.52
31585;BME280;18191;51.288;12.390;2023-03-14T14:52:14;49124.22;;;-144.47;55.58
31585;BME280;18191;51.288;12.390;2023-03-14T14:57:05;49116.25;;;-144.47;59.78
31585;BME280;18191;51.288;12.390;2023-03-14T15:01:59;49136.16;;;-144.47;65.75
31585;BME280;18191;51.288;12.390;2023-03-14T15:06:50;49164.00;;;-144.47;72.01
31585;BME280;18191;51.288;12.390;2023-03-14T15:11:40;49144.09;;;-144.47;74.14
31585;BME280;18191;51.288;12.390;2023-03-14T15:16:30;49136.16;;;-144.47;72.98
31585;BME280;18191;51.288;12.390;2023-03-14T15:21:22;49132.16;;;-144.47;72.21
31585;BME280;18191;51.288;12.390;2023-03-14T15:26:13;49183.91;;;-144.47;84.79
31585;BME280;18191;51.288;12.390;2023-03-14T15:31:05;49195.84;;;-144.47;94.50
31585;BME280;18191;51.288;12.390;2023-03-14T15:35:55;49116.25;;;-144.47;96.37
31585;BME280;18191;51.288;12.390;2023-03-14T15:40:46;49195.84;;;-144.47;96.74
31585;BME280;18191;51.288;12.390;2023-03-14T15:45:37;49183.91;;;-144.47;96.02
31585;BME280;18191;51.288;12.390;2023-03-14T15:50:27;49138.16;;;-144.47;94.43
31585;BME280;18191;51.288;12.390;2023-03-14T15:55:17;49203.78;;;-144.47;93.80
31585;BME280;18191;51.288;12.390;2023-03-14T16:00:10;49177.94;;;-144.47;92.92
31585;BME280;18191;51.288;12.390;2023-03-14T16:05:04;49187.88;;;-144.47;92.77
31585;BME280;18191;51.288;12.390;2023-03-14T16:09:54;49162.00;;;-144.47;94.05
31585;BME280;18191;51.288;12.390;2023-03-14T16:14:46;49199.81;;;-144.47;94.36
31585;BME280;18191;51.288;12.390;2023-03-14T16:19:37;49140.13;;;-144.47;92.76
31585;BME280;18191;51.288;12.390;2023-03-14T16:24:27;49140.13;;;-144.47;94.74
31585;BME280;18191;51.288;12.390;2023-03-14T16:29:17;49183.91;;;-144.47;94.76
31585;BME280;18191;51.288;12.390;2023-03-14T16:34:08;49144.09;;;-144.47;95.98
31585;BME280;18191;51.288;12.390;2023-03-14T16:38:58;49148.09;;;-144.47;95.19
31585;BME280;18191;51.288;12.390;2023-03-14T16:43:48;49140.13;;;-144.47;95.88
31585;BME280;18191;51.288;12.390;2023-03-14T16:48:41;49171.97;;;-144.47;95.35
31585;BME280;18191;51.288;12.390;2023-03-14T16:53:31;49160.03;;;-144.47;95.29
31585;BME280;18191;51.288;12.390;2023-03-14T16:58:21;49144.09;;;-144.47;96.39
31585;BME280;18191;51.288;12.390;2023-03-14T17:03:11;49160.03;;;-144.47;95.23
31585;BME280;18191;51.288;12.390;2023-03-14T17:08:01;49140.13;;;-144.47;95.45
31585;BME280;18191;51.288;12.390;2023-03-14T17:12:52;49195.84;;;-144.47;92.82
31585;BME280;18191;51.288;12.390;2023-03-14T17:17:42;49175.94;;;-144.47;92.35
31585;BME280;18191;51.288;12.390;2023-03-14T17:22:32;49156.03;;;-144.47;94.30
31585;BME280;18191;51.288;12.390;2023-03-14T17:27:22;49171.97;;;-144.47;93.59
31585;BME280;18191;51.288;12.390;2023-03-14T17:32:13;49156.03;;;-144.47;93.32
31585;BME280;18191;51.288;12.390;2023-03-14T17:37:04;49171.97;;;-144.47;93.58
31585;BME280;18191;51.288;12.390;2023-03-14T17:41:54;49171.97;;;-144.47;94.50
31585;BME280;18191;51.288;12.390;2023-03-14T17:46:44;49148.09;;;-144.47;93.76
31585;BME280;18191;51.288;12.390;2023-03-14T17:51:34;49136.16;;;-144.47;92.63
31585;BME280;18191;51.288;12.390;2023-03-14T17:56:24;49162.00;;;-144.47;92.07
31585;BME280;18191;51.288;12.390;2023-03-14T18:01:15;49164.00;;;-144.47;92.70
31585;BME280;18191;51.288;12.390;2023-03-14T18:06:06;49148.09;;;-144.47;89.99
31585;BME280;18191;51.288;12.390;2023-03-14T18:10:57;49144.09;;;-144.47;86.72
31585;BME280;18191;51.288;12.390;2023-03-14T18:15:47;49152.06;;;-144.47;86.96
31585;BME280;18191;51.288;12.390;2023-03-14T18:20:37;49195.84;;;-144.47;84.85
31585;BME280;18191;51.288;12.390;2023-03-14T18:25:28;49179.91;;;-144.47;85.26
31585;BME280;18191;51.288;12.390;2023-03-14T18:30:18;49150.06;;;-144.47;84.62
31585;BME280;18191;51.288;12.390;2023-03-14T18:35:09;49120.25;;;-144.47;82.75
31585;BME280;18191;51.288;12.390;2023-03-14T18:39:59;49124.22;;;-144.47;84.13
31585;BME280;18191;51.288;12.390;2023-03-14T18:44:49;49146.09;;;-144.47;81.09
31585;BME280;18191;51.288;12.390;2023-03-14T18:49:39;49128.19;;;-144.47;75.21
31585;BME280;18191;51.288;12.390;2023-03-14T18:54:30;49179.91;;;-144.47;73.49
31585;BME280;18191;51.288;12.390;2023-03-14T18:59:20;49166.00;;;-144.47;75.39
31585;BME280;18191;51.288;12.390;2023-03-14T19:04:10;49116.25;;;-144.47;74.77
31585;BME280;18191;51.288;12.390;2023-03-14T19:09:00;49142.13;;;-144.47;70.93
31585;BME280;18191;51.288;12.390;2023-03-14T19:18:51;49108.31;;;-144.47;69.89
31585;BME280;18191;51.288;12.390;2023-03-14T19:23:41;49120.25;;;-144.47;69.42
31585;BME280;18191;51.288;12.390;2023-03-14T19:28:32;49142.13;;;-144.47;70.36
31585;BME280;18191;51.288;12.390;2023-03-14T19:33:22;49108.31;;;-144.47;70.80
31585;BME280;18191;51.288;12.390;2023-03-14T19:38:13;49124.22;;;-144.47;70.98
31585;BME280;18191;51.288;12.390;2023-03-14T19:43:04;49136.16;;;-144.47;72.33
31585;BME280;18191;51.288;12.390;2023-03-14T19:47:55;49162.00;;;-144.47;75.48
31585;BME280;18191;51.288;12.390;2023-03-14T19:52:46;49128.19;;;-144.47;78.00
31585;BME280;18191;51.288;12.390;2023-03-14T19:57:37;49096.38;;;-144.47;76.76
31585;BME280;18191;51.288;12.390;2023-03-14T20:02:27;49167.97;;;-144.47;78.80
31585;BME280;18191;51.288;12.390;2023-03-14T20:07:18;49102.34;;;-144.47;80.48
31585;BME280;18191;51.288;12.390;2023-03-14T20:12:08;49088.41;;;-144.47;81.84
31585;BME280;18191;51.288;12.390;2023-03-14T20:16:58;49138.16;;;-144.47;79.34
31585;BME280;18191;51.288;12.390;2023-03-14T20:21:49;49136.16;;;-144.47;79.69
31585;BME280;18191;51.288;12.390;2023-03-14T20:26:40;49112.28;;;-144.47;79.52
31585;BME280;18191;51.288;12.390;2023-03-14T20:31:30;49160.03;;;-144.47;80.55
31585;BME280;18191;51.288;12.390;2023-03-14T20:36:20;49112.28;;;-144.47;80.31
31585;BME280;18191;51.288;12.390;2023-03-14T20:41:10;49120.25;;;-144.47;76.92
31585;BME280;18191;51.288;12.390;2023-03-14T20:46:00;49124.22;;;-144.47;78.90
31585;BME280;18191;51.288;12.390;2023-03-14T20:50:51;49110.28;;;-144.47;81.03
31585;BME280;18191;51.288;12.390;2023-03-14T20:55:41;49148.09;;;-144.47;80.10
31585;BME280;18191;51.288;12.390;2023-03-14T21:00:32;49108.31;;;-144.47;79.60
31585;BME280;18191;51.288;12.390;2023-03-14T21:05:24;49086.41;;;-144.47;78.72
31585;BME280;18191;51.288;12.390;2023-03-14T21:10:15;49152.06;;;-144.47;80.09
31585;BME280;18191;51.288;12.390;2023-03-14T21:15:06;49108.31;;;-144.47;82.09
31585;BME280;18191;51.288;12.390;2023-03-14T21:19:56;49144.09;;;-144.47;82.61
31585;BME280;18191;51.288;12.390;2023-03-14T21:24:49;49126.22;;;-144.47;83.61
31585;BME280;18191;51.288;12.390;2023-03-14T21:29:40;49088.41;;;-144.47;81.89
31585;BME280;18191;51.288;12.390;2023-03-14T21:34:30;49126.22;;;-144.47;77.64
31585;BME280;18191;51.288;12.390;2023-03-14T21:39:20;49167.97;;;-144.47;79.30
31585;BME280;18191;51.288;12.390;2023-03-14T21:44:10;49142.13;;;-144.47;79.43
31585;BME280;18191;51.288;12.390;2023-03-14T21:49:04;49148.09;;;-144.47;72.42
31585;BME280;18191;51.288;12.390;2023-03-14T21:53:54;49084.44;;;-144.47;75.46
31585;BME280;18191;51.288;12.390;2023-03-14T21:58:44;49116.25;;;-144.47;77.93
31585;BME280;18191;51.288;12.390;2023-03-14T22:03:35;49144.09;;;-144.47;78.76
31585;BME280;18191;51.288;12.390;2023-03-14T22:08:26;49104.31;;;-144.47;80.92
31585;BME280;18191;51.288;12.390;2023-03-14T22:13:16;49124.22;;;-144.47;83.31
31585;BME280;18191;51.288;12.390;2023-03-14T22:18:07;49146.09;;;-144.47;83.75
31585;BME280;18191;51.288;12.390;2023-03-14T22:22:57;49160.03;;;-144.47;82.76
31585;BME280;18191;51.288;12.390;2023-03-14T22:27:47;49144.09;;;-144.47;81.72
31585;BME280;18191;51.288;12.390;2023-03-14T22:32:37;49106.31;;;-144.47;80.91
31585;BME280;18191;51.288;12.390;2023-03-14T22:37:28;49112.28;;;-144.47;80.14
31585;BME280;18191;51.288;12.390;2023-03-14T22:42:18;49112.28;;;-144.47;81.62
31585;BME280;18191;51.288;12.390;2023-03-14T22:47:08;49124.22;;;-144.47;81.14
31585;BME280;18191;51.288;12.390;2023-03-14T22:51:58;49156.03;;;-144.47;81.85
31585;BME280;18191;51.288;12.390;2023-03-14T22:56:49;49088.41;;;-144.47;81.04
31585;BME280;18191;51.288;12.390;2023-03-14T23:01:39;49118.25;;;-144.47;79.08
31585;BME280;18191;51.288;12.390;2023-03-14T23:06:29;49156.03;;;-144.47;78.81
31585;BME280;18191;51.288;12.390;2023-03-14T23:11:19;49120.25;;;-144.47;79.12
31585;BME280;18191;51.288;12.390;2023-03-14T23:16:10;49162.00;;;-144.47;80.43
31585;BME280;18191;51.288;12.390;2023-03-14T23:21:14;49128.19;;;-144.47;81.79
31585;BME280;18191;51.288;12.390;2023-03-14T23:26:06;49098.34;;;-144.47;80.63
31585;BME280;18191;51.288;12.390;2023-03-14T23:30:57;49185.88;;;-144.47;80.51
31585;BME280;18191;51.288;12.390;2023-03-14T23:35:47;49120.25;;;-144.47;80.10
31585;BME280;18191;51.288;12.390;2023-03-14T23:40:37;49148.09;;;-144.47;79.54
31585;BME280;18191;51.288;12.390;2023-03-14T23:45:28;49146.09;;;-144.47;79.45
31585;BME280;18191;51.288;12.390;2023-03-14T23:50:18;49158.03;;;-144.47;78.53
31585;BME280;18191;51.288;12.390;2023-03-14T23:55:08;49124.22;;;-144.47;78.87
31585;BME280;18191;51.288;12.390;2023-03-14T23:59:58;49136.16;;;-144.47;80.59
